createdAt,value
2022-12-09T00:00:53.637Z,-1.257629
2022-12-09T00:02:03.599Z,-1.257629
2022-12-09T00:03:11.326Z,-1.247559
2022-12-09T00:04:22.126Z,-1.247559
2022-12-09T00:05:29.367Z,-1.227417
2022-12-09T00:06:38.046Z,-1.187134
2022-12-09T00:07:47.766Z,-1.197205
2022-12-09T00:08:57.476Z,-1.217346
2022-12-09T00:10:07.701Z,-1.227417
2022-12-09T00:11:15.992Z,-1.247559
2022-12-09T00:12:24.517Z,-1.257629
2022-12-09T00:13:33.184Z,-1.257629
2022-12-09T00:14:41.050Z,-1.247559
2022-12-09T00:15:49.573Z,-1.247559
2022-12-09T00:16:59.227Z,-1.257629
2022-12-09T00:18:09.049Z,-1.227417
2022-12-09T00:19:18.547Z,-1.217346
2022-12-09T00:20:27.227Z,-1.217346
2022-12-09T00:21:35.917Z,-1.197205
2022-12-09T00:22:45.601Z,-1.197205
2022-12-09T00:23:54.274Z,-1.197205
2022-12-09T00:25:02.965Z,-1.197205
2022-12-09T00:26:12.874Z,-1.187134
2022-12-09T00:27:20.332Z,-1.197205
2022-12-09T00:28:30.080Z,-1.227417
2022-12-09T00:29:38.740Z,-1.227417
2022-12-09T00:30:48.469Z,-1.247559
2022-12-09T00:31:58.353Z,-1.247559
2022-12-09T00:33:05.868Z,-1.217346
2022-12-09T00:34:15.661Z,-1.247559
2022-12-09T00:35:25.201Z,-1.247559
2022-12-09T00:36:34.865Z,-1.2677
2022-12-09T00:37:44.805Z,-1.297913
2022-12-09T00:38:53.358Z,-1.328125
2022-12-09T00:40:01.101Z,-1.378479
2022-12-09T00:41:10.916Z,-1.398621
2022-12-09T00:42:19.681Z,-1.398621
2022-12-09T00:43:28.231Z,-1.398621
2022-12-09T00:44:37.946Z,-1.428833
2022-12-09T00:45:47.954Z,-1.408691
2022-12-09T00:46:56.397Z,-1.428833
2022-12-09T00:48:06.240Z,-1.438904
2022-12-09T00:49:15.785Z,-1.459045
2022-12-09T00:50:25.376Z,-1.459045
2022-12-09T00:51:33.074Z,-1.469116
2022-12-09T00:52:42.042Z,-1.469116
2022-12-09T00:53:51.483Z,-1.469116
2022-12-09T00:55:01.348Z,-1.499329
2022-12-09T00:56:10.981Z,-1.529541
2022-12-09T00:57:20.838Z,-1.579895
2022-12-09T00:58:28.617Z,-1.579895
2022-12-09T00:59:38.418Z,-1.579895
2022-12-09T01:00:46.149Z,-1.579895
2022-12-09T01:01:54.614Z,-1.589966
2022-12-09T01:03:04.533Z,-1.589966
2022-12-09T01:04:12.143Z,-1.620178
2022-12-09T01:05:21.927Z,-1.620178
2022-12-09T01:06:30.524Z,-1.650391
2022-12-09T01:07:40.236Z,-1.680603
2022-12-09T01:08:48.781Z,-1.710815
2022-12-09T01:09:57.668Z,-1.720886
2022-12-09T01:11:06.117Z,-1.680603
2022-12-09T01:12:15.796Z,-1.690674
2022-12-09T01:13:24.479Z,-1.690674
2022-12-09T01:14:34.212Z,-1.690674
2022-12-09T01:15:43.003Z,-1.690674
2022-12-09T01:16:50.822Z,-1.710815
2022-12-09T01:18:00.330Z,-1.710815
2022-12-09T01:19:09.092Z,-1.720886
2022-12-09T01:20:17.737Z,-1.710815
2022-12-09T01:21:27.416Z,-1.720886
2022-12-09T01:22:36.143Z,-1.720886
2022-12-09T01:23:45.890Z,-1.720886
2022-12-09T01:24:55.675Z,-1.720886
2022-12-09T01:26:05.562Z,-1.761169
2022-12-09T01:27:13.884Z,-1.791382
2022-12-09T01:28:21.816Z,-1.801453
2022-12-09T01:29:31.233Z,-1.791382
2022-12-09T01:30:41.217Z,-1.791382
2022-12-09T01:31:49.965Z,-1.77124
2022-12-09T01:32:59.487Z,-1.801453
2022-12-09T01:34:07.000Z,-1.821594
2022-12-09T01:35:16.747Z,-1.841736
2022-12-09T01:36:26.382Z,-1.821594
2022-12-09T01:37:36.167Z,-1.841736
2022-12-09T01:38:45.815Z,-1.871948
2022-12-09T01:39:54.516Z,-1.89209
2022-12-09T01:41:03.203Z,-1.871948
2022-12-09T01:42:12.875Z,-1.89209
2022-12-09T01:43:22.869Z,-1.861877
2022-12-09T01:44:32.526Z,-1.871948
2022-12-09T01:45:42.303Z,-1.861877
2022-12-09T01:46:52.131Z,-1.89209
2022-12-09T01:48:01.713Z,-1.89209
2022-12-09T01:49:11.425Z,-1.922302
2022-12-09T01:50:21.330Z,-1.952515
2022-12-09T01:51:31.665Z,-1.972656
2022-12-09T01:52:40.312Z,-1.952515
2022-12-09T01:53:50.183Z,-1.89209
2022-12-09T01:54:58.724Z,-1.821594
2022-12-09T01:56:06.586Z,-1.77124
2022-12-09T01:57:16.454Z,-1.720886
2022-12-09T01:58:24.820Z,-1.720886
2022-12-09T01:59:34.645Z,-1.710815
2022-12-09T02:00:44.503Z,-1.761169
2022-12-09T02:01:51.915Z,-1.77124
2022-12-09T02:03:01.801Z,-1.821594
2022-12-09T02:04:11.678Z,-1.831665
2022-12-09T02:05:18.983Z,-1.861877
2022-12-09T02:06:28.849Z,-1.871948
2022-12-09T02:07:37.408Z,-1.89209
2022-12-09T02:08:46.391Z,-1.89209
2022-12-09T02:09:56.086Z,-1.871948
2022-12-09T02:11:03.753Z,-1.861877
2022-12-09T02:12:13.217Z,-1.861877
2022-12-09T02:13:21.933Z,-1.861877
2022-12-09T02:14:29.576Z,-1.841736
2022-12-09T02:15:39.465Z,-1.871948
2022-12-09T02:16:48.299Z,-1.871948
2022-12-09T02:17:56.759Z,-1.871948
2022-12-09T02:19:06.449Z,-1.841736
2022-12-09T02:20:14.427Z,-1.871948
2022-12-09T02:21:23.631Z,-1.861877
2022-12-09T02:22:32.419Z,-1.831665
2022-12-09T02:23:40.103Z,-1.831665
2022-12-09T02:24:49.875Z,-1.801453
2022-12-09T02:25:57.380Z,-1.801453
2022-12-09T02:27:06.056Z,-1.791382
2022-12-09T02:28:15.797Z,-1.77124
2022-12-09T02:29:25.591Z,-1.741028
2022-12-09T02:30:35.645Z,-1.761169
2022-12-09T02:31:45.410Z,-1.761169
2022-12-09T02:32:53.867Z,-1.761169
2022-12-09T02:34:03.734Z,-1.761169
2022-12-09T02:35:12.088Z,-1.741028
2022-12-09T02:36:21.009Z,-1.741028
2022-12-09T02:37:30.754Z,-1.741028
2022-12-09T02:38:39.151Z,-1.741028
2022-12-09T02:39:48.906Z,-1.680603
2022-12-09T02:40:58.575Z,-1.650391
2022-12-09T02:42:06.233Z,-1.610107
2022-12-09T02:43:16.140Z,-1.579895
2022-12-09T02:44:25.227Z,-1.539612
2022-12-09T02:45:33.929Z,-1.539612
2022-12-09T02:46:43.695Z,-1.509399
2022-12-09T02:47:52.660Z,-1.509399
2022-12-09T02:49:01.962Z,-1.499329
2022-12-09T02:50:11.189Z,-1.479187
2022-12-09T02:51:19.382Z,-1.479187
2022-12-09T02:52:29.007Z,-1.428833
2022-12-09T02:53:36.694Z,-1.398621
2022-12-09T02:54:46.679Z,-1.378479
2022-12-09T02:55:56.229Z,-1.348267
2022-12-09T02:57:03.870Z,-1.328125
2022-12-09T02:58:13.500Z,-1.328125
2022-12-09T02:59:23.159Z,-1.297913
2022-12-09T03:00:30.805Z,-1.318054
2022-12-09T03:01:41.012Z,-1.328125
2022-12-09T03:02:49.377Z,-1.348267
2022-12-09T03:03:58.981Z,-1.328125
2022-12-09T03:05:08.704Z,-1.348267
2022-12-09T03:06:18.521Z,-1.348267
2022-12-09T03:07:27.983Z,-1.348267
2022-12-09T03:08:38.029Z,-1.368408
2022-12-09T03:09:46.441Z,-1.398621
2022-12-09T03:10:56.078Z,-1.378479
2022-12-09T03:12:05.762Z,-1.428833
2022-12-09T03:13:15.385Z,-1.398621
2022-12-09T03:14:25.354Z,-1.408691
2022-12-09T03:15:32.803Z,-1.428833
2022-12-09T03:16:42.545Z,-1.438904
2022-12-09T03:17:52.133Z,-1.428833
2022-12-09T03:19:00.801Z,-1.459045
2022-12-09T03:20:11.144Z,-1.469116
2022-12-09T03:21:20.412Z,-1.499329
2022-12-09T03:22:30.226Z,-1.499329
2022-12-09T03:23:39.488Z,-1.509399
2022-12-09T03:24:47.366Z,-1.559753
2022-12-09T03:25:56.018Z,-1.610107
2022-12-09T03:27:05.641Z,-1.650391
2022-12-09T03:28:13.560Z,-1.690674
2022-12-09T03:29:23.168Z,-1.680603
2022-12-09T03:30:32.772Z,-1.690674
2022-12-09T03:31:42.326Z,-1.710815
2022-12-09T03:32:52.452Z,-1.761169
2022-12-09T03:33:59.661Z,-1.761169
2022-12-09T03:35:08.401Z,-1.801453
2022-12-09T03:36:18.022Z,-1.841736
2022-12-09T03:37:25.695Z,-1.89209
2022-12-09T03:38:35.414Z,-1.89209
2022-12-09T03:39:44.084Z,-1.902161
2022-12-09T03:40:53.926Z,-1.89209
2022-12-09T03:42:03.644Z,-1.902161
2022-12-09T03:43:13.374Z,-1.89209
2022-12-09T03:44:22.023Z,-1.922302
2022-12-09T03:45:31.744Z,-1.922302
2022-12-09T03:46:40.431Z,-1.942444
2022-12-09T03:47:50.090Z,-1.952515
2022-12-09T03:48:58.698Z,-1.952515
2022-12-09T03:50:06.785Z,-1.922302
2022-12-09T03:51:16.092Z,-1.922302
2022-12-09T03:52:23.881Z,-1.942444
2022-12-09T03:53:33.569Z,-1.952515
2022-12-09T03:54:43.360Z,-1.972656
2022-12-09T03:55:52.089Z,-1.972656
2022-12-09T03:57:01.466Z,-2.002869
2022-12-09T03:58:11.434Z,-2.02301
2022-12-09T03:59:21.236Z,-2.053223
2022-12-09T04:00:31.122Z,-2.073364
2022-12-09T04:01:39.524Z,-2.053223
2022-12-09T04:02:49.735Z,-2.073364
2022-12-09T04:03:58.268Z,-2.043152
2022-12-09T04:05:06.675Z,-2.012939
2022-12-09T04:06:16.561Z,-2.012939
2022-12-09T04:07:24.927Z,-2.02301
2022-12-09T04:08:33.794Z,-2.043152
2022-12-09T04:09:43.315Z,-2.073364
2022-12-09T04:10:52.114Z,-2.103577
2022-12-09T04:12:01.619Z,-2.133789
2022-12-09T04:13:09.309Z,-2.133789
2022-12-09T04:14:19.286Z,-2.164001
2022-12-09T04:15:28.705Z,-2.153931
2022-12-09T04:16:37.438Z,-2.164001
2022-12-09T04:17:47.005Z,-2.133789
2022-12-09T04:18:55.916Z,-2.103577
2022-12-09T04:20:03.803Z,-2.073364
2022-12-09T04:21:13.052Z,-2.073364
2022-12-09T04:22:22.721Z,-2.053223
2022-12-09T04:23:34.695Z,-2.012939
2022-12-09T04:24:43.430Z,-1.972656
2022-12-09T04:25:51.887Z,-1.922302
2022-12-09T04:27:01.670Z,-1.89209
2022-12-09T04:28:11.383Z,-1.89209
2022-12-09T04:29:18.945Z,-1.871948
2022-12-09T04:30:28.535Z,-1.871948
2022-12-09T04:31:38.280Z,-1.861877
2022-12-09T04:32:46.936Z,-1.861877
2022-12-09T04:33:56.755Z,-1.871948
2022-12-09T04:35:07.314Z,-1.871948
2022-12-09T04:36:16.819Z,-1.89209
2022-12-09T04:37:25.751Z,-1.902161
2022-12-09T04:38:33.359Z,-1.871948
2022-12-09T04:39:42.863Z,-1.871948
2022-12-09T04:40:50.766Z,-1.841736
2022-12-09T04:42:00.517Z,-1.841736
2022-12-09T04:43:10.112Z,-1.841736
2022-12-09T04:44:17.641Z,-1.841736
2022-12-09T04:45:27.361Z,-1.841736
2022-12-09T04:46:37.021Z,-1.89209
2022-12-09T04:47:46.819Z,-1.89209
2022-12-09T04:48:56.417Z,-1.902161
2022-12-09T04:50:04.588Z,-1.861877
2022-12-09T04:51:13.045Z,-1.821594
2022-12-09T04:52:22.721Z,-1.821594
2022-12-09T04:53:31.203Z,-1.801453
2022-12-09T04:54:40.927Z,-1.821594
2022-12-09T04:55:49.638Z,-1.821594
2022-12-09T04:56:57.389Z,-1.831665
2022-12-09T04:58:07.177Z,-1.821594
2022-12-09T04:59:14.820Z,-1.841736
2022-12-09T05:00:23.682Z,-1.841736
2022-12-09T05:01:34.497Z,-1.831665
2022-12-09T05:02:42.986Z,-1.801453
2022-12-09T05:03:52.805Z,-1.791382
2022-12-09T05:05:02.853Z,-1.761169
2022-12-09T05:06:11.136Z,-1.801453
2022-12-09T05:07:21.040Z,-1.821594
2022-12-09T05:08:31.550Z,-1.801453
2022-12-09T05:09:38.414Z,-1.720886
2022-12-09T05:10:46.975Z,-1.690674
2022-12-09T05:11:54.842Z,-1.690674
2022-12-09T05:13:04.467Z,-1.680603
2022-12-09T05:14:13.069Z,-1.680603
2022-12-09T05:15:21.713Z,-1.660461
2022-12-09T05:16:31.768Z,-1.64032
2022-12-09T05:17:39.156Z,-1.64032
2022-12-09T05:18:48.125Z,-1.64032
2022-12-09T05:19:57.442Z,-1.650391
2022-12-09T05:21:06.435Z,-1.650391
2022-12-09T05:22:16.022Z,-1.650391
2022-12-09T05:23:24.474Z,-1.620178
2022-12-09T05:24:33.374Z,-1.620178
2022-12-09T05:25:43.314Z,-1.620178
2022-12-09T05:26:52.585Z,-1.579895
2022-12-09T05:28:01.611Z,-1.579895
2022-12-09T05:29:11.042Z,-1.589966
2022-12-09T05:30:21.807Z,-1.589966
2022-12-09T05:31:31.385Z,-1.620178
2022-12-09T05:32:41.336Z,-1.650391
2022-12-09T05:33:48.951Z,-1.650391
2022-12-09T05:34:58.561Z,-1.660461
2022-12-09T05:36:06.155Z,-1.680603
2022-12-09T05:37:16.020Z,-1.680603
2022-12-09T05:38:25.819Z,-1.680603
2022-12-09T05:39:35.608Z,-1.680603
2022-12-09T05:40:45.406Z,-1.680603
2022-12-09T05:41:53.894Z,-1.660461
2022-12-09T05:43:01.714Z,-1.620178
2022-12-09T05:44:11.178Z,-1.64032
2022-12-09T05:45:19.121Z,-1.620178
2022-12-09T05:46:28.216Z,-1.589966
2022-12-09T05:47:37.602Z,-1.539612
2022-12-09T05:48:46.231Z,-1.509399
2022-12-09T05:49:56.171Z,-1.499329
2022-12-09T05:51:05.482Z,-1.479187
2022-12-09T05:52:15.233Z,-1.499329
2022-12-09T05:53:24.875Z,-1.509399
2022-12-09T05:54:32.609Z,-1.529541
2022-12-09T05:55:41.358Z,-1.499329
2022-12-09T05:56:51.202Z,-1.479187
2022-12-09T05:57:59.677Z,-1.479187
2022-12-09T05:59:09.365Z,-1.479187
2022-12-09T06:00:18.188Z,-1.479187
2022-12-09T06:01:27.906Z,-1.459045
2022-12-09T06:02:36.604Z,-1.469116
2022-12-09T06:03:46.414Z,-1.469116
2022-12-09T06:04:56.264Z,-1.499329
2022-12-09T06:06:04.596Z,-1.509399
2022-12-09T06:07:13.291Z,-1.509399
2022-12-09T06:08:23.209Z,-1.499329
2022-12-09T06:09:30.772Z,-1.479187
2022-12-09T06:10:40.350Z,-1.469116
2022-12-09T06:11:49.055Z,-1.459045
2022-12-09T06:12:58.912Z,-1.459045
2022-12-09T06:14:08.344Z,-1.469116
2022-12-09T06:15:21.368Z,-1.469116
2022-12-09T06:16:27.125Z,-1.459045
2022-12-09T06:17:36.582Z,-1.428833
2022-12-09T06:18:45.228Z,-1.408691
2022-12-09T06:19:54.871Z,-1.408691
2022-12-09T06:21:03.411Z,-1.408691
2022-12-09T06:22:13.374Z,-1.408691
2022-12-09T06:23:23.077Z,-1.408691
2022-12-09T06:24:30.827Z,-1.408691
2022-12-09T06:25:40.481Z,-1.368408
2022-12-09T06:26:50.036Z,-1.348267
2022-12-09T06:27:57.917Z,-1.318054
2022-12-09T06:29:07.605Z,-1.287842
2022-12-09T06:30:16.171Z,-1.2677
2022-12-09T06:31:23.967Z,-1.257629
2022-12-09T06:32:33.718Z,-1.247559
2022-12-09T06:33:58.211Z,-1.247559
2022-12-09T06:34:52.176Z,-1.247559
2022-12-09T06:36:01.614Z,-1.247559
2022-12-09T06:37:11.494Z,-1.227417
2022-12-09T06:38:20.917Z,-1.187134
2022-12-09T06:39:30.853Z,-1.13678
2022-12-09T06:40:40.320Z,-1.106567
2022-12-09T06:41:50.328Z,-1.106567
2022-12-09T06:42:57.640Z,-1.106567
2022-12-09T06:44:07.425Z,-1.106567
2022-12-09T06:45:18.117Z,-1.066284
2022-12-09T06:46:28.158Z,-1.066284
2022-12-09T06:47:37.420Z,-1.036072
2022-12-09T06:48:47.363Z,-1.036072
2022-12-09T06:49:55.307Z,-1.036072
2022-12-09T06:51:05.661Z,-1.036072
2022-12-09T06:52:14.226Z,-1.01593
2022-12-09T06:53:24.146Z,-1.01593
2022-12-09T06:54:33.581Z,-0.985718
2022-12-09T06:55:41.568Z,-0.985718
2022-12-09T06:56:50.935Z,-0.965576
2022-12-09T06:58:00.591Z,-0.965576
2022-12-09T06:59:08.611Z,-0.955505
2022-12-09T07:00:18.381Z,-0.955505
2022-12-09T07:01:26.844Z,-0.925293
2022-12-09T07:02:37.085Z,-0.955505
2022-12-09T07:03:46.187Z,-0.925293
2022-12-09T07:04:55.210Z,-0.935364
2022-12-09T07:06:04.622Z,-0.925293
2022-12-09T07:07:13.605Z,-0.925293
2022-12-09T07:08:21.922Z,-0.905151
2022-12-09T07:09:31.726Z,-0.925293
2022-12-09T07:10:40.728Z,-0.905151
2022-12-09T07:11:50.314Z,-0.905151
2022-12-09T07:12:59.931Z,-0.935364
2022-12-09T07:14:07.473Z,-0.935364
2022-12-09T07:15:17.014Z,-0.905151
2022-12-09T07:16:25.992Z,-0.925293
2022-12-09T07:17:33.489Z,-0.905151
2022-12-09T07:18:43.179Z,-0.935364
2022-12-09T07:19:51.196Z,-0.925293
2022-12-09T07:21:00.498Z,-0.905151
2022-12-09T07:22:10.269Z,-0.895081
2022-12-09T07:23:18.933Z,-0.88501
2022-12-09T07:24:28.578Z,-0.864868
2022-12-09T07:25:38.432Z,-0.834656
2022-12-09T07:26:46.980Z,-0.824585
2022-12-09T07:27:57.013Z,-0.824585
2022-12-09T07:29:04.539Z,-0.784302
2022-12-09T07:30:12.997Z,-0.754089
2022-12-09T07:31:22.947Z,-0.713806
2022-12-09T07:32:30.633Z,-0.713806
2022-12-09T07:33:39.875Z,-0.703735
2022-12-09T07:34:48.660Z,-0.673523
2022-12-09T07:35:57.074Z,-0.643311
2022-12-09T07:37:07.093Z,-0.592957
2022-12-09T07:38:14.680Z,-0.572815
2022-12-09T07:39:24.148Z,-0.562744
2022-12-09T07:40:34.099Z,-0.522461
2022-12-09T07:41:42.745Z,-0.522461
2022-12-09T07:42:56.228Z,-0.502319
2022-12-09T07:44:01.931Z,-0.472107
2022-12-09T07:45:11.784Z,-0.472107
2022-12-09T07:46:21.656Z,-0.462036
2022-12-09T07:47:30.359Z,-0.411682
2022-12-09T07:48:39.159Z,-0.411682
2022-12-09T07:49:48.468Z,-0.391541
2022-12-09T07:50:58.271Z,-0.38147
2022-12-09T07:52:07.839Z,-0.321045
2022-12-09T07:53:16.508Z,-0.250549
2022-12-09T07:54:24.522Z,-0.230408
2022-12-09T07:55:33.111Z,-0.230408
2022-12-09T07:56:41.475Z,-0.200195
2022-12-09T07:57:51.552Z,-0.180054
2022-12-09T07:58:58.964Z,-0.169983
2022-12-09T08:00:08.736Z,-0.149841
2022-12-09T08:01:18.797Z,-0.1297
2022-12-09T08:02:26.994Z,-0.139771
2022-12-09T08:03:36.844Z,-0.149841
2022-12-09T08:04:44.857Z,-0.139771
2022-12-09T08:05:54.678Z,-0.1297
2022-12-09T08:07:04.115Z,-0.109558
2022-12-09T08:08:14.682Z,-0.099487
2022-12-09T08:09:23.725Z,-0.1297
2022-12-09T08:10:33.211Z,-0.1297
2022-12-09T08:11:40.910Z,-0.1297
2022-12-09T08:12:50.563Z,-0.109558
2022-12-09T08:14:01.869Z,-0.099487
2022-12-09T08:15:10.819Z,-0.079346
2022-12-09T08:16:20.514Z,-0.079346
2022-12-09T08:17:30.300Z,-0.059204
2022-12-09T08:18:39.674Z,-0.018921
2022-12-09T08:19:48.500Z,0.001221
2022-12-09T08:20:57.421Z,0.011292
2022-12-09T08:22:06.915Z,0.051575
2022-12-09T08:23:15.821Z,0.071716
2022-12-09T08:24:25.447Z,0.101929
2022-12-09T08:25:35.261Z,0.12207
2022-12-09T08:26:43.052Z,0.152283
2022-12-09T08:27:52.051Z,0.162354
2022-12-09T08:29:01.916Z,0.212708
2022-12-09T08:30:10.929Z,0.222778
2022-12-09T08:31:20.664Z,0.232849
2022-12-09T08:32:29.971Z,0.252991
2022-12-09T08:33:38.476Z,0.263062
2022-12-09T08:34:48.145Z,0.222778
2022-12-09T08:35:56.989Z,0.222778
2022-12-09T08:37:06.812Z,0.232849
2022-12-09T08:38:16.178Z,0.252991
2022-12-09T08:39:26.314Z,0.263062
2022-12-09T08:40:35.652Z,0.283203
2022-12-09T08:41:44.641Z,0.293274
2022-12-09T08:42:51.973Z,0.293274
2022-12-09T08:44:01.717Z,0.283203
2022-12-09T08:45:09.420Z,0.293274
2022-12-09T08:46:19.621Z,0.252991
2022-12-09T08:47:29.380Z,0.263062
2022-12-09T08:48:37.987Z,0.252991
2022-12-09T08:49:47.470Z,0.263062
2022-12-09T08:50:56.146Z,0.313416
2022-12-09T08:52:03.919Z,0.323486
2022-12-09T08:53:13.291Z,0.36377
2022-12-09T08:54:22.393Z,0.393982
2022-12-09T08:55:31.878Z,0.393982
2022-12-09T08:56:41.495Z,0.434265
2022-12-09T08:57:49.509Z,0.404053
2022-12-09T08:58:58.973Z,0.37384
2022-12-09T09:00:09.222Z,0.404053
2022-12-09T09:01:18.805Z,0.414124
2022-12-09T09:02:27.312Z,0.464478
2022-12-09T09:03:36.826Z,0.504761
2022-12-09T09:04:45.509Z,0.524902
2022-12-09T09:05:54.263Z,0.545044
2022-12-09T09:07:04.847Z,0.555115
2022-12-09T09:08:14.511Z,0.575256
2022-12-09T09:09:24.474Z,0.575256
2022-12-09T09:10:33.290Z,0.575256
2022-12-09T09:11:43.012Z,0.585327
2022-12-09T09:12:51.342Z,0.585327
2022-12-09T09:14:00.351Z,0.555115
2022-12-09T09:15:10.382Z,0.555115
2022-12-09T09:16:18.438Z,0.555115
2022-12-09T09:17:28.241Z,0.555115
2022-12-09T09:18:36.993Z,0.575256
2022-12-09T09:19:45.672Z,0.595398
2022-12-09T09:20:55.578Z,0.585327
2022-12-09T09:22:03.933Z,0.575256
2022-12-09T09:23:12.583Z,0.575256
2022-12-09T09:24:22.226Z,0.575256
2022-12-09T09:25:29.939Z,0.555115
2022-12-09T09:26:39.497Z,0.575256
2022-12-09T09:27:49.211Z,0.595398
2022-12-09T09:28:57.967Z,0.62561
2022-12-09T09:30:08.102Z,0.62561
2022-12-09T09:31:17.616Z,0.645752
2022-12-09T09:32:27.264Z,0.645752
2022-12-09T09:33:37.248Z,0.655823
2022-12-09T09:34:45.838Z,0.655823
2022-12-09T09:35:55.407Z,0.726318
2022-12-09T09:37:04.240Z,0.736389
2022-12-09T09:38:12.705Z,0.766602
2022-12-09T09:39:22.364Z,0.796814
2022-12-09T09:40:31.853Z,0.837097
2022-12-09T09:41:41.779Z,0.857239
2022-12-09T09:42:51.623Z,0.87738
2022-12-09T09:43:59.000Z,0.907593
2022-12-09T09:45:08.702Z,0.907593
2022-12-09T09:46:17.539Z,0.917664
2022-12-09T09:47:25.069Z,0.907593
2022-12-09T09:48:35.894Z,0.907593
2022-12-09T09:49:45.473Z,0.87738
2022-12-09T09:50:54.368Z,0.917664
2022-12-09T09:52:03.801Z,0.937805
2022-12-09T09:53:13.403Z,0.947876
2022-12-09T09:54:23.478Z,0.957947
2022-12-09T09:55:31.763Z,0.947876
2022-12-09T09:56:41.786Z,0.907593
2022-12-09T09:57:51.126Z,0.917664
2022-12-09T09:59:01.182Z,0.937805
2022-12-09T10:00:11.366Z,0.87738
2022-12-09T10:01:20.510Z,0.827026
2022-12-09T10:02:29.510Z,0.806885
2022-12-09T10:03:39.300Z,0.806885
2022-12-09T10:04:47.829Z,0.796814
2022-12-09T10:05:57.484Z,0.806885
2022-12-09T10:07:08.195Z,0.766602
2022-12-09T10:08:16.652Z,0.766602
2022-12-09T10:09:26.579Z,0.726318
2022-12-09T10:10:34.337Z,0.675964
2022-12-09T10:11:43.049Z,0.645752
2022-12-09T10:12:54.513Z,0.645752
2022-12-09T10:14:03.388Z,0.575256
2022-12-09T10:15:12.820Z,0.585327
2022-12-09T10:16:22.958Z,0.595398
2022-12-09T10:17:31.288Z,0.62561
2022-12-09T10:18:41.166Z,0.645752
2022-12-09T10:19:50.538Z,0.645752
2022-12-09T10:20:59.317Z,0.675964
2022-12-09T10:22:08.871Z,0.726318
2022-12-09T10:23:16.651Z,0.726318
2022-12-09T10:24:26.707Z,0.686035
2022-12-09T10:25:36.959Z,0.675964
2022-12-09T10:26:45.823Z,0.655823
2022-12-09T10:27:55.387Z,0.655823
2022-12-09T10:29:05.090Z,0.645752
2022-12-09T10:30:14.036Z,0.655823
2022-12-09T10:31:23.498Z,0.686035
2022-12-09T10:32:32.467Z,0.696106
2022-12-09T10:33:42.003Z,0.696106
2022-12-09T10:34:51.442Z,0.736389
2022-12-09T10:35:59.183Z,0.756531
2022-12-09T10:37:09.065Z,0.756531
2022-12-09T10:38:16.356Z,0.776672
2022-12-09T10:39:26.124Z,0.766602
2022-12-09T10:40:36.182Z,0.766602
2022-12-09T10:41:43.500Z,0.756531
2022-12-09T10:42:53.101Z,0.736389
2022-12-09T10:44:01.967Z,0.736389
2022-12-09T10:45:10.080Z,0.756531
2022-12-09T10:46:20.952Z,0.766602
2022-12-09T10:47:29.212Z,0.806885
2022-12-09T10:48:38.039Z,0.837097
2022-12-09T10:49:47.407Z,0.837097
2022-12-09T10:50:56.132Z,0.766602
2022-12-09T10:52:06.315Z,0.756531
2022-12-09T10:53:14.432Z,0.766602
2022-12-09T10:54:23.647Z,0.756531
2022-12-09T10:55:32.928Z,0.655823
2022-12-09T10:56:41.909Z,0.645752
2022-12-09T10:57:51.312Z,0.686035
2022-12-09T10:59:00.989Z,0.756531
2022-12-09T11:00:09.371Z,0.776672
2022-12-09T11:01:18.551Z,0.917664
2022-12-09T11:02:27.264Z,0.937805
2022-12-09T11:03:36.219Z,0.947876
2022-12-09T11:04:46.021Z,0.917664
2022-12-09T11:05:53.814Z,0.87738
2022-12-09T11:07:02.135Z,0.917664
2022-12-09T11:08:11.771Z,0.937805
2022-12-09T11:09:22.557Z,0.937805
2022-12-09T11:10:32.241Z,0.917664
2022-12-09T11:11:41.163Z,0.937805
2022-12-09T11:12:50.674Z,0.957947
2022-12-09T11:14:00.266Z,0.947876
2022-12-09T11:15:08.989Z,0.978088
2022-12-09T11:16:17.533Z,1.008301
2022-12-09T11:17:27.555Z,1.018372
2022-12-09T11:18:37.347Z,1.098938
2022-12-09T11:19:47.010Z,1.12915
2022-12-09T11:20:55.529Z,1.12915
2022-12-09T11:22:04.069Z,1.139221
2022-12-09T11:23:14.370Z,1.189575
2022-12-09T11:24:23.041Z,1.189575
2022-12-09T11:25:32.510Z,1.189575
2022-12-09T11:26:41.933Z,1.189575
2022-12-09T11:27:49.571Z,1.229858
2022-12-09T11:28:59.483Z,1.199646
2022-12-09T11:30:13.020Z,1.199646
2022-12-09T11:31:29.267Z,1.199646
2022-12-09T11:32:30.794Z,1.229858
2022-12-09T11:33:39.290Z,1.260071
2022-12-09T11:34:47.822Z,1.300354
2022-12-09T11:35:57.433Z,1.310425
2022-12-09T11:37:06.056Z,1.340637
2022-12-09T11:38:15.896Z,1.37085
2022-12-09T11:39:24.671Z,1.37085
2022-12-09T11:40:33.523Z,1.401062
2022-12-09T11:41:43.187Z,1.421204
2022-12-09T11:42:51.897Z,1.451416
2022-12-09T11:44:01.649Z,1.491699
2022-12-09T11:45:11.267Z,1.491699
2022-12-09T11:46:20.005Z,1.491699
2022-12-09T11:47:31.514Z,1.531982
2022-12-09T11:48:43.747Z,1.531982
2022-12-09T11:49:50.186Z,1.552124
2022-12-09T11:50:59.853Z,1.521912
2022-12-09T11:52:09.548Z,1.491699
2022-12-09T11:53:19.217Z,1.451416
2022-12-09T11:54:26.931Z,1.441345
2022-12-09T11:55:36.611Z,1.481628
2022-12-09T11:56:46.287Z,1.491699
2022-12-09T11:57:53.968Z,1.50177
2022-12-09T11:59:03.643Z,1.531982
2022-12-09T12:00:11.384Z,1.552124
2022-12-09T12:01:21.079Z,1.552124
2022-12-09T12:02:31.742Z,1.552124
2022-12-09T12:03:39.452Z,1.552124
2022-12-09T12:04:48.144Z,1.552124
2022-12-09T12:05:57.875Z,1.552124
2022-12-09T12:07:05.529Z,1.531982
2022-12-09T12:08:15.294Z,1.531982
2022-12-09T12:09:23.874Z,1.521912
2022-12-09T12:10:33.564Z,1.531982
2022-12-09T12:11:43.285Z,1.531982
2022-12-09T12:12:51.994Z,1.521912
2022-12-09T12:14:01.692Z,1.50177
2022-12-09T12:15:11.378Z,1.491699
2022-12-09T12:16:21.113Z,1.451416
2022-12-09T12:17:31.891Z,1.491699
2022-12-09T12:18:41.452Z,1.481628
2022-12-09T12:19:50.135Z,1.50177
2022-12-09T12:20:59.823Z,1.521912
2022-12-09T12:22:07.495Z,1.491699
2022-12-09T12:23:16.189Z,1.491699
2022-12-09T12:24:25.991Z,1.521912
2022-12-09T12:25:33.670Z,1.521912
2022-12-09T12:26:43.349Z,1.531982
2022-12-09T12:27:53.014Z,1.491699
2022-12-09T12:29:07.035Z,1.481628
2022-12-09T12:30:11.410Z,1.491699
2022-12-09T12:31:20.158Z,1.521912
2022-12-09T12:32:28.841Z,1.521912
2022-12-09T12:34:00.789Z,1.552124
2022-12-09T12:34:49.172Z,1.582336
2022-12-09T12:35:58.889Z,1.62262
2022-12-09T12:37:07.573Z,1.63269
2022-12-09T12:38:15.272Z,1.63269
2022-12-09T12:39:24.982Z,1.63269
2022-12-09T12:40:33.684Z,1.672974
2022-12-09T12:41:42.386Z,1.703186
2022-12-09T12:42:51.077Z,1.743469
2022-12-09T12:43:59.779Z,1.743469
2022-12-09T12:45:09.459Z,1.773682
2022-12-09T12:46:18.235Z,1.783752
2022-12-09T12:47:25.817Z,1.773682
2022-12-09T12:48:35.574Z,1.783752
2022-12-09T12:49:44.183Z,1.783752
2022-12-09T12:51:18.475Z,0
2022-12-09T12:52:54.064Z,1.743469
2022-12-09T12:53:36.773Z,1.713257
2022-12-09T12:54:46.432Z,1.703186
2022-12-09T12:55:55.257Z,1.703186
2022-12-09T12:57:09.365Z,1.703186
2022-12-09T12:58:14.529Z,1.703186
2022-12-09T12:59:24.205Z,1.713257
2022-12-09T13:00:33.876Z,1.733398
2022-12-09T13:01:42.555Z,1.713257
2022-12-09T13:02:53.943Z,1.733398
2022-12-09T13:04:00.951Z,1.743469
2022-12-09T13:05:10.576Z,1.713257
2022-12-09T13:06:20.254Z,1.713257
2022-12-09T13:07:29.968Z,1.713257
2022-12-09T13:08:38.670Z,1.713257
2022-12-09T13:09:48.394Z,1.733398
2022-12-09T13:10:58.203Z,1.713257
2022-12-09T13:12:06.868Z,1.733398
2022-12-09T13:13:16.525Z,1.733398
2022-12-09T13:14:24.271Z,1.733398
2022-12-09T13:15:34.028Z,1.743469
2022-12-09T13:16:43.808Z,1.733398
2022-12-09T13:17:51.439Z,1.733398
2022-12-09T13:19:01.121Z,1.713257
2022-12-09T13:20:10.147Z,1.703186